Flight Track Log - Related Links

Times and Time Zones

All times are in EDT time to prevent confusion due to time zone crossing. See the G-VLIP flight status page for this flight to view local times or setup timezone preferences in your user account.

Time Position Orientation Groundspeed Altitude Reporting Facility
EDT Latitude Longitude Course Direction KTS MPH feet Rate Location/Type
Thu 08:13:15 AM 51.2118 -0.2170 259° West 307 353 5,400  Level FlightAware ADS-B
Thu 08:13:32 AM 51.2090 -0.2402 259° West 327 376 5,700 1,273 Climbing FlightAware ADS-B
Thu 08:13:48 AM 51.2022 -0.2971 259° West 350 403 6,100 727 Climbing FlightAware ADS-B
Thu 08:14:05 AM 51.1973 -0.3392 259° West 368 423 6,100 563 Level FlightAware ADS-B
Thu 08:14:20 AM 51.1921 -0.3817 260° West 370 426 6,400 1,935 Climbing FlightAware ADS-B
Thu 08:14:36 AM 51.1874 -0.4221 259° West 373 429 7,100 3,176 Climbing FlightAware ADS-B
Thu 08:14:54 AM 51.1814 -0.4735 259° West 373 429 8,200 3,000 Climbing FlightAware ADS-B
Thu 08:15:02 AM 51.1790 -0.4924 256° West 377 434 8,400 2,286 Climbing FlightAware ADS-B
Thu 08:15:15 AM 51.1724 -0.5333 251° West 384 442 9,000 2,571 Climbing FlightAware ADS-B
Thu 08:15:23 AM 51.1685 -0.5518 247° West 385 443 9,300 2,526 Climbing FlightAware ADS-B
Thu 08:15:53 AM 51.1479 -0.6287 247° West 395 455 10,600 2,500 Climbing FlightAware ADS-B
Thu 08:16:23 AM 51.1253 -0.7124 247° West 405 466 11,800 2,438 Climbing FlightAware ADS-B
Thu 08:16:57 AM 51.0999 -0.8069 247° West 413 475 13,200 2,316 Climbing FlightAware ADS-B
Thu 08:17:20 AM 51.0829 -0.8717 247° West 421 484 14,000 2,280 Climbing FlightAware ADS-B
Thu 08:17:47 AM 51.0611 -0.9517 247° West 427 491 15,100 2,172 Climbing FlightAware ADS-B
Thu 08:18:18 AM 51.0372 -1.0392 247° West 436 502 16,100 2,164 Climbing FlightAware ADS-B
Thu 08:18:48 AM 51.0127 -1.1307 246° West 441 507 17,300 2,182 Climbing FlightAware ADS-B
Thu 08:19:13 AM 50.9929 -1.2029 247° West 449 517 18,100 2,036 Climbing FlightAware ADS-B
Thu 08:19:44 AM 50.9666 -1.2998 251° West 453 521 19,200 1,862 Climbing FlightAware ADS-B
Thu 08:20:11 AM 50.9500 -1.3757 255° West 461 531 19,900 1,895 Climbing FlightAware ADS-B
Thu 08:20:22 AM 50.9422 -1.4215 259° West 463 533 20,400 2,000 Climbing FlightAware ADS-B
Thu 08:20:53 AM 50.9294 -1.5257 260° West 468 539 21,300 1,881 Climbing FlightAware ADS-B
Thu 08:21:29 AM 50.9166 -1.6457 260° West 477 549 22,500 1,881 Climbing FlightAware ADS-B
Thu 08:22:00 AM 50.9052 -1.7530 261° West 480 552 23,400 1,737 Climbing FlightAware ADS-B
Thu 08:22:45 AM 50.8885 -1.9156 261° West 494 568 24,700 1,747 Climbing FlightAware ADS-B
Thu 08:23:19 AM 50.8760 -2.0373 261° West 500 575 25,700 1,688 Climbing FlightAware ADS-B
Thu 08:23:49 AM 50.8647 -2.1465 261° West 507 583 26,500 1,403 Climbing FlightAware ADS-B
Thu 08:24:36 AM 50.8469 -2.3162 261° West 518 596 27,500 1,275 Climbing FlightAware ADS-B
Thu 08:25:09 AM 50.8339 -2.4442 261° West 520 598 28,200 1,406 Climbing FlightAware ADS-B
Thu 08:25:40 AM 50.8214 -2.5625 261° West 528 608 29,000 1,650 Climbing FlightAware ADS-B
Thu 08:26:29 AM 50.8026 -2.7453 261° West 529 609 30,400 1,442 Climbing FlightAware ADS-B
Thu 08:27:24 AM 50.7800 -2.9607 260° West 535 616 31,500 1,347 Climbing FlightAware ADS-B
Thu 08:28:07 AM 50.7615 -3.1215 260° West 533 613 32,600 1,397 Climbing FlightAware ADS-B
Thu 08:28:37 AM 50.7483 -3.2396 262° West 532 612 33,200 -887 Climbing FlightAware ADS-B
Thu 09:05:00 AM 49.6570 -11.5440 266° West -1 11 Descending FlightAware Direct Aircraft Datalink
Thu 09:43:00 AM 49.0000 -20.0000 265° West 535 616 34,000  Climbing ETMS Enhanced Traffic Management System
Thu 10:35:00 AM 47.8770 -31.0760 255° West -1 16 Descending FlightAware Direct Aircraft Datalink
Thu 10:35:15 AM 47.7392 -31.3473 255° West  Level FlightAware Approximate
Thu 10:36:15 AM 47.7014 -31.5346 255° West  Level FlightAware Approximate
Thu 10:37:15 AM 47.6632 -31.7216 255° West  Level FlightAware Approximate
Thu 10:38:15 AM 47.6248 -31.9083 254° West  Level FlightAware Approximate
Thu 10:39:15 AM 47.5860 -32.0947 254° West  Level FlightAware Approximate
Thu 10:40:15 AM 47.5469 -32.2808 254° West  Level FlightAware Approximate
Thu 10:41:15 AM 47.5075 -32.4667 254° West  Level FlightAware Approximate
Thu 10:42:15 AM 47.4679 -32.6523 254° West  Level FlightAware Approximate
Thu 10:43:15 AM 47.4279 -32.8376 254° West  Level FlightAware Approximate
Thu 10:44:15 AM 47.3876 -33.0226 254° West  Level FlightAware Approximate
Thu 10:45:15 AM 47.3471 -33.2074 254° West  Level FlightAware Approximate
Thu 10:46:15 AM 47.3062 -33.3918 254° West  Level FlightAware Approximate
Thu 10:47:15 AM 47.2651 -33.5760 253° West  Level FlightAware Approximate
Thu 10:48:15 AM 47.2236 -33.7599 253° West  Level FlightAware Approximate
Thu 10:49:15 AM 47.1819 -33.9435 253° West  Level FlightAware Approximate
Thu 10:50:15 AM 47.1399 -34.1268 253° West  Level FlightAware Approximate
Thu 10:51:15 AM 47.0975 -34.3098 253° West  Level FlightAware Approximate
Thu 10:52:15 AM 47.0549 -34.4926 253° West  Level FlightAware Approximate
Thu 10:53:15 AM 47.0120 -34.6750 253° West  Level FlightAware Approximate
Thu 10:54:15 AM 46.9688 -34.8571 253° West  Level FlightAware Approximate
Thu 10:55:15 AM 46.9253 -35.0390 253° West  Level FlightAware Approximate
Thu 10:56:15 AM 46.8815 -35.2205 253° West  Level FlightAware Approximate
Thu 10:57:15 AM 46.8375 -35.4018 253° West  Level FlightAware Approximate
Thu 10:58:15 AM 46.7931 -35.5827 252° West  Level FlightAware Approximate
Thu 10:59:15 AM 46.7485 -35.7634 252° West  Level FlightAware Approximate
Thu 11:00:15 AM 46.7036 -35.9437 252° West  Level FlightAware Approximate
Thu 11:01:15 AM 46.6584 -36.1238 252° West  Level FlightAware Approximate
Thu 11:02:15 AM 46.6129 -36.3035 252° West  Level FlightAware Approximate
Thu 11:02:33 AM 46.7187 -36.1404 252° West  Level FlightAware Approximate
Thu 11:04:15 AM 46.6400 -36.4455 251° West  Level FlightAware Approximate
Thu 11:05:15 AM 46.5933 -36.6245 251° West  Level FlightAware Approximate
Thu 11:06:15 AM 46.5464 -36.8033 251° West  Level FlightAware Approximate
Thu 11:07:15 AM 46.4992 -36.9817 251° West  Level FlightAware Approximate
Thu 11:08:15 AM 46.4517 -37.1598 251° West  Level FlightAware Approximate
Thu 11:09:15 AM 46.4039 -37.3376 251° West  Level FlightAware Approximate
Thu 11:10:15 AM 46.3559 -37.5151 251° West  Level FlightAware Approximate
Thu 11:11:15 AM 46.3076 -37.6923 251° West  Level FlightAware Approximate
Thu 11:12:15 AM 46.2590 -37.8692 251° West  Level FlightAware Approximate
Thu 11:13:15 AM 46.2101 -38.0457 251° West  Level FlightAware Approximate
Thu 11:14:15 AM 46.1610 -38.2220 251° West  Level FlightAware Approximate
Thu 11:15:15 AM 46.1116 -38.3979 251° West  Level FlightAware Approximate
Thu 11:16:15 AM 46.0619 -38.5735 251° West  Level FlightAware Approximate
Thu 11:17:15 AM 46.0120 -38.7488 251° West  Level FlightAware Approximate
Thu 11:18:15 AM 45.9618 -38.9238 251° West  Level FlightAware Approximate
Thu 11:19:15 AM 45.9113 -39.0985 251° West  Level FlightAware Approximate
Thu 11:20:15 AM 45.8606 -39.2728 251° West  Level FlightAware Approximate
Thu 11:21:15 AM 45.8096 -39.4468 251° West  Level FlightAware Approximate
Thu 11:22:15 AM 45.7583 -39.6205 251° West  Level FlightAware Approximate
Thu 11:23:15 AM 45.7068 -39.7939 251° West  Level FlightAware Approximate
Thu 11:24:15 AM 45.6550 -39.9670 251° West  Level FlightAware Approximate
Thu 11:25:15 AM 45.6029 -40.1397 251° West  Level FlightAware Approximate
Thu 11:26:15 AM 45.5506 -40.3121 251° West  Level FlightAware Approximate
Thu 11:27:15 AM 45.4981 -40.4842 251° West  Level FlightAware Approximate
Thu 11:28:15 AM 45.4452 -40.6560 251° West  Level FlightAware Approximate
Thu 11:29:15 AM 45.3921 -40.8275 251° West  Level FlightAware Approximate
Thu 11:30:15 AM 45.3388 -40.9986 252° West  Level FlightAware Approximate
Thu 11:31:15 AM 45.2852 -41.1694 252° West  Level FlightAware Approximate
Thu 11:32:15 AM 45.2313 -41.3399 252° West  Level FlightAware Approximate
Thu 11:33:15 AM 45.1772 -41.5101 252° West  Level FlightAware Approximate
Thu 11:34:15 AM 45.1229 -41.6799 253° West  Level FlightAware Approximate
Thu 11:35:15 AM 45.0683 -41.8494 253° West  Level FlightAware Approximate
Thu 11:36:15 AM 45.0134 -42.0186 254° West  Level FlightAware Approximate
Thu 11:37:15 AM 44.9583 -42.1875 255° West  Level FlightAware Approximate
Thu 11:38:15 AM 44.9030 -42.3560 256° West  Level FlightAware Approximate
Thu 11:39:15 AM 44.8436 -42.5217 257° West  Level FlightAware Approximate
Thu 11:40:15 AM 44.7840 -42.6870 259° West  Level FlightAware Approximate
Thu 11:41:15 AM 44.7242 -42.8519 262° West  Level FlightAware Approximate
Thu 11:42:15 AM 44.6641 -43.0165 266° West  Level FlightAware Approximate
Thu 11:43:15 AM 44.6038 -43.1808 272° West  Level FlightAware Approximate
Thu 11:44:15 AM 44.5432 -43.3447 281° West  Level FlightAware Approximate
Thu 11:45:15 AM 44.4824 -43.5083 297° West  Level FlightAware Approximate
Thu 11:46:15 AM 44.4214 -43.6715 322° Northwest  Level FlightAware Approximate
Thu 11:46:55 AM 44.6167 -43.8833 242° Southwest 464 534 36,000  Level New York Oceanic (ODAPS)
Thu 12:06:18 PM 43.3167 -47.0667 240° Southwest 467 537 36,000 30 Level New York Oceanic (ODAPS)
Thu 12:16:45 PM 42.6167 -48.6667 238° Southwest 471 542 36,900 51 Climbing New York Oceanic (ODAPS)
Thu 12:25:48 PM 42.0000 -50.0000 236° Southwest 466 536 37,000 10 Climbing New York Oceanic (ODAPS)
Thu 12:26:56 PM 41.9500 -50.1000 235° Southwest 466 536 37,000 48 Level New York Oceanic (ODAPS)
Thu 12:46:50 PM 40.4333 -52.9167 238° Southwest 467 537 38,000 -1,608 Climbing New York Oceanic (ODAPS)
Thu 12:50:00 PM 40.1540 -53.5090 232° Southwest -1  Descending FlightAware Direct Aircraft Datalink
Thu 01:07:05 PM 38.8167 -55.6833 232° Southwest 475 547 38,000 1,019 Climbing New York Oceanic (ODAPS)
Thu 01:27:23 PM 37.1167 -58.3500 230° Southwest 469 540 38,000  Level New York Oceanic (ODAPS)
Thu 01:40:39 PM 36.0000 -60.0000 229° Southwest 475 547 38,000  Level New York Oceanic (ODAPS)
Thu 01:47:38 PM 35.4000 -60.8333 229° Southwest 479 551 38,000  Level New York Oceanic (ODAPS)
Thu 01:58:33 PM 34.4011 -62.2100 233° Southwest 500 575 38,000  Level New York Center
Thu 01:59:31 PM 34.3300 -62.3233 240° Southwest 489 563 38,000  Level New York Center
Thu 02:00:32 PM 34.2572 -62.4764 238° Southwest 489 563 38,000  Level New York Center
Thu 02:01:33 PM 34.1950 -62.5983 241° Southwest 482 555 38,000  Level New York Center
Thu 02:02:31 PM 34.1258 -62.7481 243° Southwest 482 555 38,000  Level New York Center
Thu 02:03:31 PM 34.0647 -62.8919 240° Southwest 482 555 38,000  Level New York Center
Thu 02:04:33 PM 34.0061 -63.0153 240° Southwest 482 555 38,000  Level New York Center
Thu 02:05:31 PM 33.9344 -63.1647 241° Southwest 482 555 38,000  Level New York Center
Thu 02:06:31 PM 33.8703 -63.3031 240° Southwest 487 560 38,000  Level New York Center
Thu 02:07:32 PM 33.8111 -63.4258 240° Southwest 487 560 38,000  Level New York Center
Thu 02:08:33 PM 33.7392 -63.5769 241° Southwest 487 560 38,000  Level New York Center
Thu 02:09:33 PM 33.6819 -63.7017 240° Southwest 487 560 38,000  Level New York Center
Thu 02:10:34 PM 33.6097 -63.8547 240° Southwest 487 560 38,000  Level New York Center
Thu 02:11:31 PM 33.5464 -63.9869 241° Southwest 487 560 38,000  Level New York Center
Thu 02:12:32 PM 33.4889 -64.1111 241° Southwest 487 560 38,000  Level New York Center
Thu 02:13:33 PM 33.4197 -64.2583 239° Southwest 487 560 38,000  Level New York Center
Thu 02:14:33 PM 33.3578 -64.3825 240° Southwest 487 560 38,000  Level New York Center
Thu 02:15:33 PM 33.2864 -64.5319 240° Southwest 487 560 38,000  Level New York Center
Thu 02:16:34 PM 33.2206 -64.6683 239° Southwest 487 560 38,000  Level New York Center
Thu 02:17:31 PM 33.1525 -64.8044 240° Southwest 492 566 38,000  Level New York Center
Thu 02:18:31 PM 33.0919 -64.9278 239° Southwest 487 560 38,000  Level New York Center
Thu 02:19:32 PM 33.0158 -65.0789 240° Southwest 487 560 38,000  Level New York Center
Thu 02:20:33 PM 32.9514 -65.2142 239° Southwest 487 560 38,000  Level New York Center
Thu 02:21:33 PM 32.8883 -65.3394 239° Southwest 487 560 38,000  Level New York Center
Thu 02:22:31 PM 32.8117 -65.4900 240° Southwest 493 567 38,000  Level New York Center
Thu 02:23:32 PM 32.7506 -65.6169 239° Southwest 493 567 38,000  Level New York Center
Thu 02:24:33 PM 32.6758 -65.7669 239° Southwest 488 562 38,000  Level New York Center
Thu 02:25:33 PM 32.6044 -65.9067 239° Southwest 488 562 38,000  Level New York Center
Thu 02:26:32 PM 32.5428 -66.0283 239° Southwest 488 562 38,000  Level New York Center
Thu 02:27:33 PM 32.4653 -66.1825 238° Southwest 493 567 38,000  Level New York Center
Thu 02:28:33 PM 32.3953 -66.3164 239° Southwest 491 565 38,000  Level New York Center
Thu 02:29:31 PM 32.3333 -66.4397 240° Southwest 491 565 38,000  Level New York Center
Thu 02:30:31 PM 32.2594 -66.5881 239° Southwest 485 558 38,000  Level New York Center
Thu 02:31:33 PM 32.1989 -66.7086 238° Southwest 485 558 38,000  Level New York Center
Thu 02:32:31 PM 32.1206 -66.8544 238° Southwest 485 558 38,000  Level New York Center
Thu 02:33:33 PM 32.0517 -66.9847 241° Southwest 480 552 38,000  Level New York Center
Thu 02:34:31 PM 31.9950 -67.1044 238° Southwest 480 552 38,000  Level New York Center
Thu 02:35:32 PM 31.9222 -67.2442 237° Southwest 470 541 38,000  Level New York Center
Thu 02:36:33 PM 31.8569 -67.3617 238° Southwest 470 541 38,000  Level New York Center
Thu 02:37:31 PM 31.7817 -67.5011 237° Southwest 470 541 38,000  Level New York Center
Thu 02:38:32 PM 31.7100 -67.6306 238° Southwest 470 541 38,000  Level New York Center
Thu 02:39:33 PM 31.6483 -67.7469 240° Southwest 470 541 38,000  Level New York Center
Thu 02:40:33 PM 31.5769 -67.8931 236° Southwest 475 547 38,000  Level New York Center
Thu 02:41:31 PM 31.5031 -68.0194 244° Southwest 475 547 38,000  Level New York Center
Thu 02:41:52 PM 31.4833 -68.0667 236° Southwest 465 535 38,000  Level New York Oceanic (ODAPS)
Thu 02:42:32 PM 31.4431 -68.1356 243° Southwest 480 552 38,000  Level New York Center
Thu 02:43:15 PM 31.4000 -68.2333 240° Southwest 470 541 38,000  Level New York Oceanic (ODAPS)
Thu 02:50:51 PM 30.9000 -69.2333 241° Southwest 474 545 38,000  Level New York Oceanic (ODAPS)
Thu 02:59:01 PM 30.4000 -70.2667 235° Southwest 476 548 38,000  Level New York Oceanic (ODAPS)
Thu 03:00:02 PM 30.3500 -70.3500 238° Southwest 478 550 38,000  Level New York Oceanic (ODAPS)
Thu 03:20:09 PM 28.8833 -73.0167 237° Southwest 478 550 38,000  Level New York Oceanic (ODAPS)
Thu 03:28:32 PM 28.2500 -74.1167 237° Southwest 486 559 38,000  Level New York Oceanic (ODAPS)
Thu 03:38:01 PM 27.5447 -75.3333 238° Southwest 487 560 38,000  Level Miami Center
Thu 03:39:01 PM 27.4731 -75.4608 229° Southwest 493 567 38,000  Level Miami Center
Thu 03:40:01 PM 27.3842 -75.5742 227° Southwest 482 555 38,000  Level Miami Center
Thu 03:41:01 PM 27.2911 -75.6850 228° Southwest 489 563 38,000  Level Miami Center
Thu 03:42:01 PM 27.2003 -75.7981 228° Southwest 489 563 38,000  Level Miami Center
Thu 03:43:01 PM 27.1111 -75.9111 228° Southwest 489 563 38,000  Level Miami Center
Thu 03:44:01 PM 27.0200 -76.0261 229° Southwest 489 563 38,000  Level Miami Center
Thu 03:45:01 PM 26.9328 -76.1386 226° Southwest 489 563 38,000  Level Miami Center
Thu 03:46:01 PM 26.8372 -76.2486 227° Southwest 489 563 38,000  Level Miami Center
Thu 03:47:01 PM 26.7458 -76.3583 228° Southwest 489 563 38,000  Level Miami Center
Thu 03:48:01 PM 26.6542 -76.4728 228° Southwest 489 563 38,000  Level Miami Center
Thu 03:49:01 PM 26.5647 -76.5822 226° Southwest 489 563 38,000  Level Miami Center
Thu 03:50:01 PM 26.4686 -76.6917 227° Southwest 489 563 38,000  Level Miami Center
Thu 03:51:01 PM 26.3769 -76.8031 227° Southwest 489 563 38,000  Level Miami Center
Thu 03:52:01 PM 26.2850 -76.9144 227° Southwest 494 568 38,000 -200 Level Miami Center
Thu 03:53:01 PM 26.1908 -77.0256 228° Southwest 494 568 37,600 -500 Descending Miami Center
Thu 03:54:01 PM 26.0986 -77.1386 226° Southwest 494 568 37,000 -300 Descending Miami Center
Thu 03:55:01 PM 26.0067 -77.2447 227° Southwest 489 563 37,000  Level Miami Center
Thu 03:56:01 PM 25.9142 -77.3556 227° Southwest 489 563 37,000  Level Miami Center
Thu 03:57:01 PM 25.8114 -77.4797 226° Southwest 489 563 37,000  Level Miami Center
Thu 03:58:01 PM 25.7147 -77.5900 228° Southwest 489 563 37,000  Level Miami Center
Thu 03:59:01 PM 25.6203 -77.7047 226° Southwest 494 568 37,000  Level Miami Center
Thu 04:00:01 PM 25.5256 -77.8122 227° Southwest 499 574 37,000  Level Miami Center
Thu 04:01:01 PM 25.4286 -77.9264 226° Southwest 499 574 37,000  Level Miami Center
Thu 04:02:01 PM 25.3336 -78.0361 227° Southwest 499 574 37,000  Level Miami Center
Thu 04:03:01 PM 25.2367 -78.1500 225° Southwest 499 574 37,000  Level Miami Center
Thu 04:04:01 PM 25.1394 -78.2569 227° Southwest 499 574 37,000  Level Miami Center
Thu 04:05:01 PM 25.0464 -78.3681 226° Southwest 499 574 37,000  Level Miami Center
Thu 04:06:01 PM 24.9533 -78.4747 225° Southwest 499 574 37,000  Level Miami Center
Thu 04:07:01 PM 24.8561 -78.5833 227° Southwest 499 574 37,000  Level Miami Center
Thu 04:08:01 PM 24.7628 -78.6919 224° Southwest 499 574 37,000  Level Miami Center
Thu 04:09:01 PM 24.6844 -78.7753 229° Southwest 499 574 37,000  Level Miami Center
Thu 04:10:01 PM 24.5908 -78.8928 226° Southwest 494 568 37,000  Level Miami Center
Thu 04:11:01 PM 24.4933 -79.0031 227° Southwest 489 563 37,000  Level Miami Center
Thu 04:12:01 PM 24.4019 -79.1089 226° Southwest 489 563 37,000  Level Miami Center
Thu 04:13:01 PM 24.3125 -79.2097 226° Southwest 489 563 37,000  Level Miami Center
Thu 04:14:01 PM 24.2147 -79.3219 226° Southwest 489 563 37,000  Level Miami Center
Thu 04:15:01 PM 24.1253 -79.4225 228° Southwest 488 562 37,000  Level Miami Center
Thu 04:16:01 PM 24.0356 -79.5322 250° West 488 562 37,000  Level Miami Center
Thu 04:17:01 PM 23.9911 -79.6678 247° West 482 555 37,000  Level Miami Center
Thu 04:24:15 PM 23.6211 -80.6226 248° West  Level FlightAware Approximate
Thu 04:25:15 PM 23.5726 -80.7560 253° West  Level FlightAware Approximate
Thu 04:26:15 PM 23.5335 -80.8926 248° West  Level FlightAware Approximate
Thu 04:27:15 PM 23.4839 -81.0254 246° West  Level FlightAware Approximate
Thu 04:28:15 PM 23.4310 -81.1567 248° West  Level FlightAware Approximate
Thu 04:29:15 PM 23.3815 -81.2894 248° West  Level FlightAware Approximate
Thu 04:30:15 PM 23.3319 -81.4221 248° West  Level FlightAware Approximate
Thu 04:31:15 PM 23.2822 -81.5547 252° West  Level FlightAware Approximate
Thu 04:32:15 PM 23.2414 -81.6883 247° West  Level FlightAware Approximate
Thu 04:33:15 PM 23.1898 -81.8199 247° West  Level FlightAware Approximate
Thu 04:34:15 PM 23.1380 -81.9514 247° West  Level FlightAware Approximate
Thu 04:35:15 PM 23.0868 -82.0831 247° West  Level FlightAware Approximate
Thu 04:36:15 PM 23.0343 -82.2141 248° West  Level FlightAware Approximate
Thu 04:37:15 PM 22.9846 -82.3463 275° West  Level FlightAware Approximate
Thu 04:38:15 PM 22.9949 -82.4887 71° East  Level Estimated
Thu 04:39:15 PM 23.2545 -81.6555 247° West  Level FlightAware Approximate
Thu 04:40:15 PM 23.2028 -81.7871 247° West  Level FlightAware Approximate
Thu 04:41:15 PM 23.1511 -81.9186 247° West  Level FlightAware Approximate
Thu 04:42:15 PM 23.0992 -82.0500 247° West  Level FlightAware Approximate
Thu 04:43:15 PM 23.0472 -82.1813 247° West  Level FlightAware Approximate
Thu 04:44:15 PM 22.9958 -82.3128 266° West  Level FlightAware Approximate
Thu 04:45:15 PM 22.9860 -82.4552 86° East  Level Estimated
Thu 04:46:15 PM 22.9958 -82.3128 266° West  Level Estimated
Thu 04:47:15 PM 22.9860 -82.4552 86° East  Level Estimated
Thu 04:48:15 PM 22.9958 -82.3128 250° West  Level Estimated
Thu 04:49:15 PM 22.9667 -82.4000 340° North  Level FlightAware Approximate
Thu 04:50:15 PM 23.0899 -82.4498 160° South  Level Estimated
Thu 04:51:15 PM 22.9667 -82.4000 340° North  Level FlightAware Approximate
Thu 04:52:15 PM 23.0899 -82.4498 160° South  Level Estimated
Thu 04:53:15 PM 22.9667 -82.4000 160° South  Level FlightAware Approximate

Login

Don't have an account? Register now (free) for customized features, flight alerts, and more!